createdAt,value
2023-05-25T00:01:06.180Z,20.42
2023-05-25T00:03:33.819Z,18.33
2023-05-25T00:06:01.893Z,21.65
2023-05-25T00:08:29.688Z,20.33
2023-05-25T00:10:59.564Z,20.52
2023-05-25T00:13:26.691Z,21.08
2023-05-25T00:15:54.258Z,21.35
2023-05-25T00:18:21.442Z,20.60
2023-05-25T00:20:48.832Z,24.73
2023-05-25T00:23:16.347Z,20.48
2023-05-25T00:25:44.015Z,20.13
2023-05-25T00:28:11.928Z,21.52
2023-05-25T00:30:41.717Z,21.08
2023-05-25T00:33:11.462Z,18.17
2023-05-25T00:35:38.949Z,21.17
2023-05-25T00:38:12.036Z,21.60
2023-05-25T00:40:42.036Z,18.30
2023-05-25T00:43:14.112Z,17.77
2023-05-25T00:45:41.631Z,21.88
2023-05-25T00:48:11.306Z,24.23
2023-05-25T00:50:39.714Z,19.77
2023-05-25T00:53:10.960Z,21.27
2023-05-25T00:56:09.801Z,17.65
2023-05-25T00:58:40.214Z,18.40
2023-05-25T01:01:11.444Z,16.95
2023-05-25T01:03:41.473Z,17.73
2023-05-25T01:06:12.803Z,16.40
2023-05-25T01:08:44.181Z,17.60
2023-05-25T01:11:12.125Z,17.60
2023-05-25T01:13:40.451Z,19.63
2023-05-25T01:16:09.622Z,17.77
2023-05-25T01:18:38.951Z,19.20
2023-05-25T01:21:17.057Z,16.25
2023-05-25T01:23:52.844Z,15.80
2023-05-25T01:26:23.918Z,17.27
2023-05-25T01:28:52.946Z,18.83
2023-05-25T01:31:25.580Z,20.05
2023-05-25T01:33:53.690Z,19.48
2023-05-25T01:36:21.521Z,16.85
2023-05-25T01:38:49.941Z,19.95
2023-05-25T01:41:17.384Z,18.55
2023-05-25T01:43:44.796Z,19.20
2023-05-25T01:46:33.440Z,19.00
2023-05-25T01:49:25.066Z,21.83
2023-05-25T01:52:12.996Z,20.40
2023-05-25T01:54:47.049Z,29.77
2023-05-25T01:57:16.767Z,16.30
2023-05-25T01:59:46.430Z,17.92
2023-05-25T02:02:20.344Z,20.05
2023-05-25T02:07:15.297Z,18.52
2023-05-25T02:09:42.377Z,17.65
2023-05-25T02:12:09.879Z,19.48
2023-05-25T02:14:37.059Z,20.67
2023-05-25T02:17:04.664Z,22.10
2023-05-25T02:19:31.884Z,21.85
2023-05-25T02:21:59.384Z,23.65
2023-05-25T02:24:26.621Z,24.08
2023-05-25T02:26:54.143Z,22.05
2023-05-25T02:29:21.245Z,20.13
2023-05-25T02:31:48.706Z,22.83
2023-05-25T02:34:15.936Z,25.58
2023-05-25T02:36:44.332Z,26.77
2023-05-25T02:39:11.740Z,21.15
2023-05-25T02:41:39.512Z,18.02
2023-05-25T02:44:07.067Z,20.02
2023-05-25T02:46:34.980Z,22.08
2023-05-25T02:49:02.142Z,23.73
2023-05-25T02:51:29.726Z,25.75
2023-05-25T02:53:57.063Z,20.65
2023-05-25T02:56:24.490Z,26.10
2023-05-25T02:58:51.564Z,22.27
2023-05-25T03:03:57.120Z,23.35
2023-05-25T03:06:24.545Z,24.92
2023-05-25T03:08:53.968Z,25.45
2023-05-25T03:11:21.364Z,25.05
2023-05-25T03:13:51.794Z,23.13
2023-05-25T03:16:19.241Z,24.67
2023-05-25T03:18:46.379Z,25.17
2023-05-25T03:21:13.957Z,26.40
2023-05-25T03:23:41.254Z,23.15
2023-05-25T03:26:08.732Z,26.00
2023-05-25T03:28:38.283Z,22.10
2023-05-25T03:31:05.659Z,24.85
2023-05-25T03:33:32.772Z,27.05
2023-05-25T03:36:00.158Z,23.02
2023-05-25T03:38:27.253Z,23.50
2023-05-25T03:40:54.758Z,24.45
2023-05-25T03:43:21.851Z,20.30
2023-05-25T03:45:49.220Z,26.83
2023-05-25T03:48:16.326Z,20.70
2023-05-25T03:50:43.731Z,23.40
2023-05-25T03:53:10.822Z,17.05
2023-05-25T03:55:38.617Z,24.00
2023-05-25T03:58:05.846Z,20.25
2023-05-25T04:00:33.277Z,20.92
2023-05-25T04:03:00.388Z,16.30
2023-05-25T04:05:27.855Z,18.17
2023-05-25T04:07:55.131Z,21.25
2023-05-25T04:10:25.162Z,16.40
2023-05-25T04:12:52.302Z,19.35
2023-05-25T04:15:19.707Z,19.65
2023-05-25T04:17:46.885Z,17.95
2023-05-25T04:20:14.288Z,17.88
2023-05-25T04:22:41.496Z,16.20
2023-05-25T04:25:09.276Z,19.77
2023-05-25T04:27:36.584Z,20.77
2023-05-25T04:30:04.886Z,16.42
2023-05-25T04:32:32.247Z,21.00
2023-05-25T04:34:59.792Z,18.08
2023-05-25T04:37:26.909Z,20.45
2023-05-25T04:39:54.525Z,18.23
2023-05-25T04:42:21.785Z,21.48
2023-05-25T04:44:49.199Z,18.48
2023-05-25T04:47:16.318Z,15.50
2023-05-25T04:49:43.721Z,16.67
2023-05-25T04:52:13.487Z,13.30
2023-05-25T04:54:40.888Z,16.33
2023-05-25T04:57:12.644Z,11.40
2023-05-25T04:59:40.069Z,17.50
2023-05-25T05:02:11.732Z,11.27
2023-05-25T05:04:39.133Z,14.68
2023-05-25T05:07:06.220Z,11.95
2023-05-25T05:09:33.611Z,10.57
2023-05-25T05:12:00.925Z,13.80
2023-05-25T05:14:30.837Z,13.68
2023-05-25T05:17:01.365Z,14.02
2023-05-25T05:19:29.121Z,15.95
2023-05-25T05:21:58.578Z,11.82
2023-05-25T05:24:25.962Z,13.88
2023-05-25T05:26:58.918Z,24.48
2023-05-25T05:29:26.846Z,12.85
2023-05-25T05:31:56.825Z,12.60
2023-05-25T05:34:24.361Z,11.30
2023-05-25T05:36:57.937Z,12.85
2023-05-25T05:39:29.029Z,13.55
2023-05-25T05:41:56.202Z,11.65
2023-05-25T05:44:26.806Z,10.20
2023-05-25T05:46:56.428Z,13.27
2023-05-25T05:49:23.891Z,13.00
2023-05-25T05:51:50.968Z,12.05
2023-05-25T05:54:18.380Z,10.30
2023-05-25T05:56:45.528Z,12.68
2023-05-25T05:59:12.947Z,13.30
2023-05-25T06:01:40.074Z,10.88
2023-05-25T06:04:09.752Z,12.55
2023-05-25T06:06:37.027Z,13.02
2023-05-25T06:09:04.988Z,11.10
2023-05-25T06:11:32.517Z,10.18
2023-05-25T06:13:59.944Z,10.73
2023-05-25T06:16:27.116Z,12.20
2023-05-25T06:18:57.214Z,10.23
2023-05-25T06:21:24.336Z,12.95
2023-05-25T06:23:52.151Z,11.30
2023-05-25T06:26:19.309Z,11.60
2023-05-25T06:28:46.844Z,26.52
2023-05-25T06:31:13.902Z,11.52
2023-05-25T06:33:41.327Z,12.38
2023-05-25T06:36:09.668Z,10.43
2023-05-25T06:38:39.661Z,9.18
2023-05-25T06:41:09.007Z,12.18
2023-05-25T06:43:39.013Z,11.82
2023-05-25T06:46:06.185Z,8.70
2023-05-25T06:48:33.699Z,14.55
2023-05-25T06:51:03.339Z,10.23
2023-05-25T06:53:31.332Z,12.30
2023-05-25T06:55:58.784Z,13.05
2023-05-25T06:58:28.145Z,11.45
2023-05-25T07:00:55.570Z,10.93
2023-05-25T07:03:22.817Z,12.50
2023-05-25T07:05:50.382Z,10.93
2023-05-25T07:08:17.512Z,11.30
2023-05-25T07:10:49.820Z,12.95
2023-05-25T07:13:19.976Z,11.07
2023-05-25T07:15:49.613Z,10.02
2023-05-25T07:18:16.690Z,9.27
2023-05-25T07:20:44.437Z,12.50
2023-05-25T07:23:14.480Z,8.57
2023-05-25T07:25:42.217Z,10.63
2023-05-25T07:28:09.465Z,10.55
2023-05-25T07:30:36.917Z,10.68
2023-05-25T07:33:06.530Z,11.50
2023-05-25T07:35:33.887Z,9.48
2023-05-25T07:38:02.356Z,8.43
2023-05-25T07:40:30.093Z,10.55
2023-05-25T07:42:57.413Z,13.48
2023-05-25T07:45:25.056Z,10.07
2023-05-25T07:47:52.355Z,8.35
2023-05-25T07:50:19.922Z,10.10
2023-05-25T07:52:47.069Z,7.93
2023-05-25T07:55:14.569Z,10.23
2023-05-25T07:57:41.653Z,9.95
2023-05-25T08:00:12.610Z,11.23
2023-05-25T08:02:42.289Z,9.25
2023-05-25T08:05:10.266Z,11.57
2023-05-25T08:07:38.257Z,9.60
2023-05-25T08:10:06.947Z,11.13
2023-05-25T08:12:42.918Z,10.60
2023-05-25T08:15:14.070Z,8.65
2023-05-25T08:17:43.560Z,9.70
2023-05-25T08:20:11.629Z,11.60
2023-05-25T08:22:38.783Z,9.88
2023-05-25T08:25:06.467Z,9.20
2023-05-25T08:27:35.785Z,9.13
2023-05-25T08:30:07.224Z,8.50
2023-05-25T08:32:34.411Z,7.47
2023-05-25T08:35:04.398Z,10.13
2023-05-25T08:37:34.359Z,6.38
2023-05-25T08:40:01.944Z,8.63
2023-05-25T08:42:29.403Z,7.80
2023-05-25T08:44:56.970Z,10.70
2023-05-25T08:47:39.552Z,7.63
2023-05-25T08:50:09.516Z,8.55
2023-05-25T08:52:39.547Z,10.38
2023-05-25T08:55:09.217Z,8.43
2023-05-25T08:57:50.578Z,9.82
2023-05-25T09:00:23.950Z,9.15
2023-05-25T09:02:59.986Z,7.28
2023-05-25T09:05:27.756Z,9.60
2023-05-25T09:07:56.094Z,8.90
2023-05-25T09:10:24.672Z,9.77
2023-05-25T09:12:52.426Z,10.05
2023-05-25T09:15:20.068Z,7.63
2023-05-25T09:17:49.731Z,15.48
2023-05-25T09:20:19.297Z,8.50
2023-05-25T09:22:47.658Z,9.30
2023-05-25T09:25:19.114Z,8.55
2023-05-25T09:27:46.431Z,10.82
2023-05-25T09:30:13.965Z,9.13
2023-05-25T09:32:43.561Z,9.10
2023-05-25T09:35:13.139Z,9.35
2023-05-25T09:37:44.561Z,12.57
2023-05-25T09:40:12.833Z,9.03
2023-05-25T09:42:43.215Z,7.32
2023-05-25T09:45:13.239Z,11.23
2023-05-25T09:47:40.824Z,11.40
2023-05-25T09:50:11.558Z,7.55
2023-05-25T09:52:38.764Z,9.70
2023-05-25T09:55:09.607Z,7.30
2023-05-25T09:57:36.907Z,12.18
2023-05-25T10:00:08.107Z,11.98
2023-05-25T10:02:35.886Z,9.43
2023-05-25T10:05:03.791Z,10.05
2023-05-25T10:07:31.523Z,9.57
2023-05-25T10:10:03.642Z,12.27
2023-05-25T10:12:33.505Z,10.38
2023-05-25T10:15:04.087Z,9.02
2023-05-25T10:17:36.177Z,10.38
2023-05-25T10:20:07.598Z,10.25
2023-05-25T10:22:44.427Z,12.70
2023-05-25T10:25:18.286Z,9.32
2023-05-25T10:27:54.374Z,10.18
2023-05-25T10:30:23.851Z,9.50
2023-05-25T10:32:59.810Z,8.30
2023-05-25T10:35:27.564Z,9.80
2023-05-25T10:37:56.818Z,9.75
2023-05-25T10:40:24.574Z,10.20
2023-05-25T10:42:51.816Z,12.05
2023-05-25T10:45:22.419Z,10.20
2023-05-25T10:47:52.201Z,10.90
2023-05-25T10:50:23.885Z,14.77
2023-05-25T10:53:07.329Z,11.00
2023-05-25T10:55:49.221Z,10.77
2023-05-25T10:58:21.694Z,10.23
2023-05-25T11:01:03.058Z,10.30
2023-05-25T11:03:48.626Z,9.02
2023-05-25T11:06:18.042Z,13.45
2023-05-25T11:08:54.947Z,12.95
2023-05-25T11:11:43.109Z,9.95
2023-05-25T11:14:35.607Z,10.35
2023-05-25T11:17:14.483Z,8.20
2023-05-25T11:19:52.904Z,10.27
2023-05-25T11:22:27.815Z,9.20
2023-05-25T11:24:57.298Z,8.57
2023-05-25T11:27:31.696Z,8.98
2023-05-25T11:29:59.614Z,11.25
2023-05-25T11:32:29.719Z,9.68
2023-05-25T11:34:57.616Z,10.23
2023-05-25T11:37:29.648Z,10.20
2023-05-25T11:40:01.576Z,10.80
2023-05-25T11:42:32.606Z,9.80
2023-05-25T11:45:02.354Z,9.10
2023-05-25T11:47:33.566Z,10.93
2023-05-25T11:50:04.249Z,13.27
2023-05-25T11:52:32.012Z,12.55
2023-05-25T11:54:59.256Z,10.85
2023-05-25T11:57:26.762Z,12.75
2023-05-25T11:59:56.213Z,11.07
2023-05-25T12:02:24.265Z,11.98
2023-05-25T12:05:02.977Z,9.85
2023-05-25T12:07:31.553Z,10.88
2023-05-25T12:10:09.702Z,11.52
2023-05-25T12:12:41.062Z,13.00
2023-05-25T12:15:11.109Z,13.27
2023-05-25T12:17:42.155Z,13.82
2023-05-25T12:20:10.947Z,12.68
2023-05-25T12:22:40.092Z,9.77
2023-05-25T12:25:08.689Z,13.10
2023-05-25T12:27:35.876Z,10.05
2023-05-25T12:30:05.268Z,10.52
2023-05-25T12:32:35.008Z,10.77
2023-05-25T12:35:06.622Z,12.20
2023-05-25T12:37:36.486Z,10.23
2023-05-25T12:40:17.566Z,12.40
2023-05-25T12:42:44.661Z,9.35
2023-05-25T12:45:12.075Z,11.70
2023-05-25T12:47:39.300Z,11.35
2023-05-25T12:50:13.986Z,12.20
2023-05-25T12:52:44.857Z,16.05
2023-05-25T12:55:34.275Z,12.45
2023-05-25T12:58:04.921Z,11.45
2023-05-25T13:00:33.400Z,10.38
2023-05-25T13:03:01.150Z,12.68
2023-05-25T13:05:31.577Z,13.43
2023-05-25T13:07:59.163Z,11.00
2023-05-25T13:10:28.479Z,10.20
2023-05-25T13:12:55.660Z,14.15
2023-05-25T13:15:23.388Z,14.63
2023-05-25T13:17:51.819Z,13.35
2023-05-25T13:20:22.123Z,13.93
2023-05-25T13:22:55.276Z,13.02
2023-05-25T13:25:23.191Z,12.15
2023-05-25T13:27:52.065Z,14.23
2023-05-25T13:30:20.141Z,11.30
2023-05-25T13:32:49.534Z,11.73
2023-05-25T13:35:23.781Z,11.85
2023-05-25T13:37:53.651Z,11.23
2023-05-25T13:40:20.734Z,11.20
2023-05-25T13:42:48.140Z,10.80
2023-05-25T13:45:18.198Z,14.90
2023-05-25T13:47:45.759Z,12.80
2023-05-25T13:50:13.171Z,66.90
2023-05-25T13:52:40.526Z,14.23
2023-05-25T13:55:08.216Z,14.63
2023-05-25T13:57:35.660Z,10.75
2023-05-25T14:00:07.486Z,12.30
2023-05-25T14:02:37.465Z,14.13
2023-05-25T14:05:07.758Z,10.77
2023-05-25T14:07:35.132Z,12.68
2023-05-25T14:10:02.223Z,16.67
2023-05-25T14:12:29.601Z,12.25
2023-05-25T14:14:56.805Z,16.52
2023-05-25T14:17:24.786Z,16.88
2023-05-25T14:19:51.970Z,14.38
2023-05-25T14:22:19.559Z,13.25
2023-05-25T14:24:46.653Z,14.15
2023-05-25T14:27:14.089Z,23.92
2023-05-25T14:29:41.186Z,14.65
2023-05-25T14:32:11.137Z,14.75
2023-05-25T14:34:38.600Z,11.98
2023-05-25T14:37:06.149Z,14.63
2023-05-25T14:39:33.441Z,14.88
2023-05-25T14:42:00.834Z,14.40
2023-05-25T14:44:28.129Z,18.17
2023-05-25T14:46:55.696Z,13.38
2023-05-25T14:49:25.393Z,11.63
2023-05-25T14:51:55.395Z,14.73
2023-05-25T14:54:27.115Z,11.73
2023-05-25T14:56:56.799Z,11.32
2023-05-25T14:59:26.163Z,13.70
2023-05-25T15:01:53.623Z,12.43
2023-05-25T15:04:23.140Z,13.27
2023-05-25T15:06:53.221Z,14.30
2023-05-25T15:09:22.685Z,11.85
2023-05-25T15:11:52.280Z,14.80
2023-05-25T15:14:19.368Z,13.15
2023-05-25T15:16:46.829Z,14.00
2023-05-25T15:19:16.022Z,14.25
2023-05-25T15:21:45.167Z,12.07
2023-05-25T15:24:12.250Z,13.75
2023-05-25T15:26:39.690Z,13.95
2023-05-25T15:29:06.812Z,12.75
2023-05-25T15:31:34.292Z,10.90
2023-05-25T15:34:01.479Z,10.40
2023-05-25T15:36:28.919Z,17.55
2023-05-25T15:38:58.310Z,10.60
2023-05-25T15:41:25.731Z,10.68
2023-05-25T15:43:54.581Z,11.00
2023-05-25T15:46:22.101Z,10.45
2023-05-25T15:48:49.243Z,13.45
2023-05-25T15:51:16.647Z,17.00
2023-05-25T15:53:43.845Z,14.75
2023-05-25T15:56:11.436Z,10.93
2023-05-25T15:58:38.674Z,12.95
2023-05-25T16:01:06.373Z,12.63
2023-05-25T16:03:33.591Z,13.02
2023-05-25T16:06:01.089Z,11.00
2023-05-25T16:08:28.161Z,12.27
2023-05-25T16:10:55.585Z,13.32
2023-05-25T16:13:22.657Z,12.32
2023-05-25T16:15:50.164Z,13.00
2023-05-25T16:18:17.227Z,11.27
2023-05-25T16:20:44.726Z,11.85
2023-05-25T16:23:11.943Z,11.82
2023-05-25T16:25:39.397Z,14.10
2023-05-25T16:28:06.502Z,11.50
2023-05-25T16:30:33.923Z,11.77
2023-05-25T16:33:01.130Z,9.77
2023-05-25T16:35:28.546Z,11.10
2023-05-25T16:37:55.607Z,11.45
2023-05-25T16:40:22.965Z,11.50
2023-05-25T16:42:54.741Z,12.25
2023-05-25T16:45:22.078Z,11.95
2023-05-25T16:47:51.559Z,11.93
2023-05-25T16:50:23.423Z,12.02
2023-05-25T16:52:50.520Z,10.82
2023-05-25T16:55:17.895Z,15.98
2023-05-25T16:57:44.990Z,10.50
2023-05-25T17:00:12.951Z,12.32
2023-05-25T17:02:42.705Z,10.55
2023-05-25T17:05:12.824Z,9.88
2023-05-25T17:07:40.096Z,10.73
2023-05-25T17:10:08.567Z,11.35
2023-05-25T17:12:38.155Z,13.93
2023-05-25T17:15:08.309Z,10.98
2023-05-25T17:17:35.475Z,13.65
2023-05-25T17:20:03.009Z,14.70
2023-05-25T17:22:30.127Z,11.23
2023-05-25T17:24:57.491Z,10.57
2023-05-25T17:27:24.555Z,15.18
2023-05-25T17:29:52.011Z,11.60
2023-05-25T17:32:19.330Z,11.35
2023-05-25T17:34:46.942Z,15.20
2023-05-25T17:37:14.056Z,10.30
2023-05-25T17:39:41.591Z,11.07
2023-05-25T17:42:09.087Z,12.82
2023-05-25T17:44:36.450Z,11.43
2023-05-25T17:47:03.566Z,10.25
2023-05-25T17:49:30.939Z,11.15
2023-05-25T17:51:58.134Z,11.82
2023-05-25T17:54:25.746Z,11.52
2023-05-25T17:56:53.678Z,12.95
2023-05-25T17:59:23.283Z,11.00
2023-05-25T18:01:50.726Z,13.20
2023-05-25T18:04:18.315Z,10.50
2023-05-25T18:06:46.769Z,11.32
2023-05-25T18:09:16.405Z,12.05
2023-05-25T18:11:43.556Z,14.60
2023-05-25T18:14:13.616Z,10.93
2023-05-25T18:16:40.794Z,12.00
2023-05-25T18:19:10.949Z,12.45
2023-05-25T18:21:40.341Z,12.68
2023-05-25T18:24:10.215Z,12.35
2023-05-25T18:26:37.304Z,12.00
2023-05-25T18:29:04.698Z,15.82
2023-05-25T18:31:31.832Z,10.95
2023-05-25T18:34:02.387Z,12.45
2023-05-25T18:36:31.655Z,14.82
2023-05-25T18:38:59.125Z,12.63
2023-05-25T18:41:26.413Z,11.85
2023-05-25T18:43:54.080Z,20.42
2023-05-25T18:46:26.021Z,23.80
2023-05-25T18:48:53.562Z,18.42
2023-05-25T18:51:20.843Z,15.05
2023-05-25T18:53:48.442Z,11.65
2023-05-25T18:56:15.565Z,13.18
2023-05-25T18:58:43.033Z,13.02
2023-05-25T19:01:10.165Z,13.25
2023-05-25T19:03:42.157Z,16.63
2023-05-25T19:06:09.319Z,14.57
2023-05-25T19:08:36.762Z,15.18
2023-05-25T19:11:08.630Z,18.63
2023-05-25T19:13:36.052Z,17.40
2023-05-25T19:16:03.149Z,20.92
2023-05-25T19:18:30.685Z,15.57
2023-05-25T19:20:58.426Z,13.48
2023-05-25T19:23:25.878Z,13.23
2023-05-25T19:25:53.402Z,13.18
2023-05-25T19:28:20.817Z,15.93
2023-05-25T19:30:47.954Z,10.55
2023-05-25T19:33:15.385Z,16.80
2023-05-25T19:35:42.712Z,15.82
2023-05-25T19:38:10.794Z,14.25
2023-05-25T19:40:40.348Z,13.45
2023-05-25T19:43:07.734Z,12.02
2023-05-25T19:45:34.909Z,12.90
2023-05-25T19:48:02.332Z,11.82
2023-05-25T19:50:31.905Z,12.32
2023-05-25T19:53:02.934Z,12.68
2023-05-25T19:55:30.215Z,16.48
2023-05-25T19:57:57.608Z,12.13
2023-05-25T20:00:29.242Z,11.57
2023-05-25T20:02:56.844Z,12.73
2023-05-25T20:05:24.157Z,13.25
2023-05-25T20:07:51.576Z,11.90
2023-05-25T20:10:19.032Z,14.70
2023-05-25T20:12:48.677Z,17.98
2023-05-25T20:15:15.877Z,30.15
2023-05-25T20:17:43.326Z,14.15
2023-05-25T20:20:13.161Z,18.48
2023-05-25T20:22:40.633Z,14.60
2023-05-25T20:25:10.400Z,13.82
2023-05-25T20:27:37.792Z,17.40
2023-05-25T20:30:05.378Z,10.98
2023-05-25T20:32:32.807Z,14.00
2023-05-25T20:35:00.062Z,17.73
2023-05-25T20:37:28.444Z,15.63
2023-05-25T20:39:58.986Z,12.93
2023-05-25T20:42:26.369Z,14.23
2023-05-25T20:44:53.566Z,16.23
2023-05-25T20:47:21.009Z,15.00
2023-05-25T20:49:48.169Z,14.13
2023-05-25T20:52:15.607Z,16.58
2023-05-25T20:54:42.878Z,14.02
2023-05-25T20:57:11.184Z,16.63
2023-05-25T20:59:38.327Z,21.38
2023-05-25T21:02:05.967Z,17.13
2023-05-25T21:04:35.388Z,15.02
2023-05-25T21:07:02.887Z,17.45
2023-05-25T21:09:32.508Z,19.13
2023-05-25T21:12:00.646Z,19.73
2023-05-25T21:14:27.889Z,16.63
2023-05-25T21:16:55.379Z,17.60
2023-05-25T21:19:22.527Z,17.38
2023-05-25T21:21:50.033Z,19.95
2023-05-25T21:24:17.194Z,48.28
2023-05-25T21:26:49.087Z,20.85
2023-05-25T21:29:16.197Z,17.35
2023-05-25T21:31:46.185Z,17.55
2023-05-25T21:34:13.275Z,16.50
2023-05-25T21:36:40.662Z,17.52
2023-05-25T21:39:07.716Z,19.85
2023-05-25T21:41:35.115Z,20.20
2023-05-25T21:44:02.218Z,20.83
2023-05-25T21:46:32.259Z,21.88
2023-05-25T21:48:59.441Z,24.23
2023-05-25T21:51:29.412Z,20.25
2023-05-25T21:53:59.431Z,23.52
2023-05-25T21:56:29.087Z,20.83
2023-05-25T21:58:56.432Z,21.40
2023-05-25T22:01:23.960Z,22.27
2023-05-25T22:03:51.181Z,24.02
2023-05-25T22:06:21.045Z,21.50
2023-05-25T22:08:48.077Z,24.85
2023-05-25T22:11:15.468Z,19.48
2023-05-25T22:13:45.042Z,22.58
2023-05-25T22:16:12.492Z,21.88
2023-05-25T22:18:39.565Z,23.92
2023-05-25T22:21:06.946Z,23.02
2023-05-25T22:23:34.017Z,24.48
2023-05-25T22:26:01.477Z,25.85
2023-05-25T22:28:28.511Z,26.10
2023-05-25T22:30:58.228Z,22.85
2023-05-25T22:33:25.357Z,25.10
2023-05-25T22:35:52.747Z,26.27
2023-05-25T22:38:19.892Z,22.42
2023-05-25T22:40:47.300Z,25.70
2023-05-25T22:43:14.936Z,24.55
2023-05-25T22:45:42.780Z,23.08
2023-05-25T22:48:12.376Z,26.92
2023-05-25T22:50:39.940Z,34.50
2023-05-25T22:53:07.039Z,28.58
2023-05-25T22:55:34.422Z,24.05
2023-05-25T22:58:01.488Z,23.33
2023-05-25T23:00:28.924Z,21.98
2023-05-25T23:02:56.195Z,22.27
2023-05-25T23:05:23.660Z,23.65
2023-05-25T23:07:50.735Z,22.73
2023-05-25T23:10:20.607Z,22.00
2023-05-25T23:12:47.684Z,22.52
2023-05-25T23:15:15.077Z,19.98
2023-05-25T23:17:44.523Z,22.75
2023-05-25T23:20:14.474Z,20.00
2023-05-25T23:22:42.797Z,21.98
2023-05-25T23:25:12.406Z,23.52
2023-05-25T23:27:39.823Z,21.63
2023-05-25T23:30:08.132Z,21.55
2023-05-25T23:32:36.025Z,24.23
2023-05-25T23:35:03.662Z,22.55
2023-05-25T23:37:30.748Z,22.30
2023-05-25T23:39:58.181Z,22.90
2023-05-25T23:42:27.867Z,19.70
2023-05-25T23:44:55.271Z,22.88
2023-05-25T23:47:22.368Z,22.02
2023-05-25T23:49:49.843Z,24.27
2023-05-25T23:52:16.977Z,24.85
2023-05-25T23:54:46.668Z,23.27
2023-05-25T23:57:16.158Z,25.33
2023-05-25T23:59:45.998Z,22.02
